Accueil
METAR-TAF:

METAR-TAF

Aéroports :

Aéroport de Singapour-Changi

Singapour, Singapour

latitude: 01-22N, longitude: 103-59E, altitude: 5 m

Observation

Le bulletin a été fait il y a 31 minutes, à 03:00 UTC
Vent 7 kt de nord-est, variant entre nord-ouest et est/nord-est
Température 30°C
Humidité 66%
Pression 1012 hPa
Visibilité 10 km ou plus
Quelques nuages à une hauteur de 1800 ft
Nuages fragmentés à une hauteur de 35000 ft

METAR: WSSS 230300Z 04007KT 320V060 9999 FEW018 BKN350 30/23 Q1012 NOSIG

Heure: 11:31 (03:31 UTC)

Prévision

Le bulletin a été fait il y a 4 heures et 31 minutes, à 23:00 UTC
Prévision valable du 23 à 00 UTC au 24 à 06 UTC
Vent 10 kt de nord
Visibilité 10 km ou plus
Nuages épars à une hauteur de 2000 ft

TAF: WSSS 222300Z 2300/2406 01010KT 9999 SCT020

Observations et prévisions météorologiques de plus de 4000 aéroports (messages METAR et TAF).

Les stations disponibles sont représentées par des disques jaunes et rouges sur la carte.

Passer la souris dessus pour voir le nom de la station.

Cliquer dessus pour voir les observations et prévisions météorologiques.

Pour changer de carte: cliquez sur les boutons verts avec une croix noire pour zoomer, sur le bouton vert avec un tiret pour effectuer un zoom arrière, ou sur les flèches vertes pour les cartes adjacentes.


METAR-TAF: